Loudon, New Hampshire
Current Conditions -  °F | °C
As of 6:04 AM on Thursday 18 Dec 2014 (Local Time) from KCON Reporting Station
Overcast Overcast  
Wind Chill: 28°   Ceiling: 3000
Heat Index: 36°   Visibility: 10mi
Dew Point: 31°   Wind: 10mph
Humidity: 82%   Direction: 280°W
Pressure: 29.7"   Gusts: NA
Location:  43.18°N, 71.56°W
Report Text: KCON 181104Z AUTO 28009KT 10SM OVC030 02/M01 A2970 RMK AO2 T00221006
Loading
Personal Weather Stations






























Interactive Weather Map New forecast layout! Learn more

10-Day Weather Forecast

Advertisements
Track Severe Weather on mobile